Terminal Aerodrome Forecast
Issued by NWS

Home | Current Version | Previous Version | Text Only | Print | Product List | Glossary Off
Versions: 1 2 3 4 5 6 7 8 9 10 11 12 13 14 15 16 17 18 19 20 21

000
FTUS43 KICT 031429 AAA
TAFCNU
TAF AMD
KCNU 031429Z 0314/0412 21017G25KT 2SM -DZ BR OVC002
     FM031530 21018G26KT 5SM BR OVC012
     FM031800 22020G28KT P6SM BKN035
     FM032300 36017G25KT P6SM SCT035 OVC250=

USA.gov is the U.S. government's official web portal to all federal, state and local government web resources and services.